Time;durP1;ratioP1;P1;durP2;ratioP2;P2;SDS_P1;SDS_P2;PMS_P1;PMS_P2;Temp;Humidity;BMP_temperature;BMP_pressure;BME280_temperature;BME280_humidity;BME280_pressure;Samples;Min_cycle;Max_cycle;Signal;HPM_P1;HPM_P2
2021/12/19 00:01:15;;;;;;;6.30;5.80;;;;;;;6.47;95.06;102440.66;4968311;28;20292;-80
2021/12/19 00:03:53;;;;;;;7.70;7.07;;;;;;;6.45;94.48;102433.66;4965537;28;20202;-80
2021/12/19 00:09:03;;;;;;;7.13;6.57;;;;;;;6.46;95.51;102420.75;4969492;28;20240;-79
2021/12/19 00:11:30;;;;;;;8.10;6.50;;;;;;;6.44;95.61;102416.31;4972857;28;20201;-80
2021/12/19 00:13:58;;;;;;;5.80;5.37;;;;;;;6.46;94.12;102453.56;4976083;28;20213;-79
2021/12/19 00:16:26;;;;;;;5.70;5.17;;;;;;;6.36;93.29;102479.25;4967962;28;20659;-80
2021/12/19 00:18:53;;;;;;;5.27;4.87;;;;;;;6.41;93.58;102479.38;4968518;28;20260;-80
2021/12/19 00:21:22;;;;;;;5.40;5.00;;;;;;;6.39;92.78;102491.41;4968067;28;20235;-79
2021/12/19 00:23:50;;;;;;;6.73;6.13;;;;;;;6.37;92.85;102487.91;4969036;28;20202;-79
2021/12/19 00:26:17;;;;;;;6.40;5.90;;;;;;;6.36;92.74;102479.25;4971373;28;20271;-79
2021/12/19 00:28:44;;;;;;;6.07;5.67;;;;;;;6.32;93.52;102460.94;4965366;28;20208;-79
2021/12/19 00:31:12;;;;;;;5.87;5.47;;;;;;;6.26;94.92;102450.38;4971869;28;20256;-80
2021/12/19 00:33:39;;;;;;;8.53;7.03;;;;;;;6.28;94.48;102434.03;4971276;28;20212;-79
2021/12/19 00:36:06;;;;;;;7.07;6.57;;;;;;;6.18;95.00;102403.44;4971578;28;20233;-80
2021/12/19 00:38:33;;;;;;;7.23;6.70;;;;;;;6.19;95.68;102389.66;4971745;28;20204;-79
2021/12/19 00:41:00;;;;;;;6.97;6.27;;;;;;;6.20;95.59;102368.06;4971686;28;20682;-80
2021/12/19 00:43:34;;;;;;;8.03;7.43;;;;;;;6.22;95.87;102373.31;4978231;28;20636;-79
2021/12/19 00:46:06;;;;;;;8.23;7.53;;;;;;;6.21;96.34;102381.94;4974606;28;20240;-80
2021/12/19 00:48:34;;;;;;;7.90;7.20;;;;;;;6.15;95.79;102372.25;4968242;28;20257;-79
2021/12/19 00:51:01;;;;;;;8.63;7.80;;;;;;;6.07;96.06;102382.38;4979558;28;20284;-79
2021/12/19 00:53:27;;;;;;;9.07;7.13;;;;;;;6.14;95.05;102391.22;4971328;28;20202;-79
2021/12/19 00:55:54;;;;;;;8.70;8.00;;;;;;;6.13;95.27;102394.66;4967668;28;20225;-79
2021/12/19 00:58:20;;;;;;;7.60;6.90;;;;;;;6.08;94.99;102396.22;4967500;28;20209;-80
2021/12/19 01:00:47;;;;;;;9.10;8.30;;;;;;;6.07;95.67;102392.75;4970661;28;20205;-79
2021/12/19 01:03:13;;;;;;;8.50;7.80;;;;;;;6.11;95.76;102385.97;4970898;28;20200;-80
2021/12/19 01:05:42;;;;;;;8.33;7.67;;;;;;;6.01;94.97;102381.31;4978477;28;20221;-79
2021/12/19 01:08:09;;;;;;;8.43;7.63;;;;;;;6.00;94.60;102382.16;4970839;28;20578;-79
2021/12/19 01:10:36;;;;;;;9.13;8.23;;;;;;;6.02;95.11;102385.66;4969898;28;20204;-79
2021/12/19 01:13:03;;;;;;;8.80;8.10;;;;;;;6.06;95.20;102371.97;4966564;28;20202;-79
2021/12/19 01:15:30;;;;;;;8.67;7.87;;;;;;;6.01;94.92;102374.41;4968225;28;20260;-80
2021/12/19 01:17:56;;;;;;;9.07;8.23;;;;;;;5.93;96.11;102357.72;4979143;28;20206;-80
2021/12/19 01:20:26;;;;;;;7.80;7.07;;;;;;;5.99;95.14;102354.47;4972355;28;20699;-78
2021/12/19 01:22:55;;;;;;;8.93;8.23;;;;;;;6.06;95.38;102352.09;4969885;28;20626;-78
2021/12/19 01:25:21;;;;;;;8.33;7.57;;;;;;;6.06;95.61;102349.50;4970033;28;20223;-78
2021/12/19 01:27:48;;;;;;;8.23;7.23;;;;;;;6.02;95.30;102359.75;4969975;28;20205;-80
2021/12/19 01:30:15;;;;;;;8.93;8.23;;;;;;;5.99;96.06;102333.75;4970479;28;20200;-79
2021/12/19 01:32:43;;;;;;;7.90;7.20;;;;;;;6.04;95.91;102338.22;4977412;28;20208;-79
2021/12/19 01:35:12;;;;;;;8.23;7.53;;;;;;;6.05;96.36;102337.38;4978027;28;20627;-79
2021/12/19 01:37:38;;;;;;;7.37;6.67;;;;;;;5.96;96.08;102335.38;4970560;28;20202;-79
2021/12/19 01:40:09;;;;;;;7.90;7.10;;;;;;;5.99;96.18;102331.16;4977458;28;20214;-80
2021/12/19 01:42:38;;;;;;;7.60;6.53;;;;;;;5.93;96.77;102309.34;4968020;28;20209;-79
2021/12/19 01:45:07;;;;;;;9.17;6.97;;;;;;;5.89;96.75;102291.06;4975043;28;20200;-79
2021/12/19 01:47:33;;;;;;;7.43;6.23;;;;;;;5.85;97.03;102266.78;4970365;28;20212;-79
2021/12/19 01:50:00;;;;;;;8.47;6.90;;;;;;;5.92;96.43;102263.50;4969206;28;20205;-80
2021/12/19 01:52:28;;;;;;;7.00;6.40;;;;;;;6.04;96.46;102255.25;4970581;28;20263;-80
2021/12/19 01:54:55;;;;;;;7.00;6.10;;;;;;;5.97;96.56;102261.13;4969443;28;20352;-79
2021/12/19 01:57:25;;;;;;;6.40;5.90;;;;;;;5.94;96.71;102250.59;4969630;28;20279;-78
2021/12/19 01:59:51;;;;;;;6.97;6.37;;;;;;;5.93;96.78;102235.91;4969465;28;20210;-78
2021/12/19 02:02:18;;;;;;;6.53;5.93;;;;;;;5.92;97.50;102234.13;4967974;28;20563;-80
2021/12/19 02:04:44;;;;;;;6.90;6.20;;;;;;;6.02;96.86;102225.81;4967444;28;20211;-80
2021/12/19 02:07:12;;;;;;;7.30;6.70;;;;;;;6.00;97.18;102227.47;4966366;28;20223;-79
2021/12/19 02:09:39;;;;;;;6.70;6.10;;;;;;;5.91;97.70;102212.53;4973828;28;20284;-79
2021/12/19 02:12:06;;;;;;;6.30;5.70;;;;;;;5.99;97.86;102199.81;4970297;28;20200;-79
2021/12/19 02:14:33;;;;;;;5.97;5.47;;;;;;;5.99;97.73;102217.09;4973499;28;20211;-79
2021/12/19 02:17:00;;;;;;;5.73;5.23;;;;;;;6.02;96.96;102214.56;4976444;28;20711;-80
2021/12/19 02:19:29;;;;;;;6.53;5.93;;;;;;;6.02;97.82;102210.25;4969528;28;20202;-78
2021/12/19 02:21:57;;;;;;;7.80;5.33;;;;;;;6.04;97.20;102208.59;4969517;28;20201;-79
2021/12/19 02:24:24;;;;;;;5.97;5.37;;;;;;;6.01;97.31;102195.56;4978163;28;20622;-80
2021/12/19 02:26:50;;;;;;;6.20;5.60;;;;;;;6.01;97.86;102194.69;4969708;28;20307;-79
2021/12/19 02:29:17;;;;;;;5.53;5.03;;;;;;;6.08;97.20;102196.59;4969063;28;20198;-80
2021/12/19 02:31:45;;;;;;;5.87;5.37;;;;;;;6.05;96.87;102179.25;4976547;28;20204;-80
2021/12/19 02:34:16;;;;;;;5.97;5.47;;;;;;;6.03;97.38;102174.88;4969301;28;20264;-79
2021/12/19 02:36:53;;;;;;;5.97;5.37;;;;;;;6.06;97.48;102169.75;4977339;28;20312;-78
2021/12/19 02:50:31;;;;;;;7.77;5.93;;;;;;;6.06;97.95;102152.47;4971339;28;20201;-79
2021/12/19 02:52:58;;;;;;;6.30;5.77;;;;;;;6.12;97.63;102146.59;4968706;28;20243;-78
2021/12/19 02:55:26;;;;;;;5.37;4.87;;;;;;;6.12;97.91;102149.19;4961890;28;20206;-80
2021/12/19 02:57:53;;;;;;;8.03;5.37;;;;;;;6.06;98.22;102149.00;4976921;28;20200;-78
2021/12/19 03:00:22;;;;;;;5.93;5.07;;;;;;;6.13;98.68;102132.81;4968709;28;20203;-79
2021/12/19 03:02:49;;;;;;;6.17;5.63;;;;;;;6.12;98.75;102128.44;4967822;28;20259;-79
2021/12/19 03:05:15;;;;;;;6.27;5.40;;;;;;;6.09;98.45;102128.38;4968257;28;20200;-79
2021/12/19 03:07:43;;;;;;;5.93;5.43;;;;;;;6.08;98.13;102129.19;4976792;28;20270;-79
2021/12/19 03:10:39;;;;;;;6.17;5.57;;;;;;;6.07;98.13;102128.31;4968460;28;20687;-79
2021/12/19 03:13:17;;;;;;;6.30;5.70;;;;;;;6.14;97.88;102116.41;4976111;28;20206;-79
2021/12/19 03:18:29;;;;;;;6.20;5.53;;;;;;;6.03;98.01;102104.88;4966888;28;20216;-79
2021/12/19 03:20:56;;;;;;;7.37;6.00;;;;;;;6.02;98.44;102106.56;4976219;28;20204;-79
2021/12/19 03:23:22;;;;;;;7.33;5.47;;;;;;;6.01;98.97;102101.38;4976507;28;20669;-79
2021/12/19 03:25:49;;;;;;;6.17;5.50;;;;;;;6.01;99.02;102098.78;4968319;28;20616;-79
2021/12/19 03:28:17;;;;;;;6.10;5.57;;;;;;;6.04;98.74;102089.34;4976000;28;20200;-79
2021/12/19 03:30:46;;;;;;;6.17;5.67;;;;;;;6.04;98.80;102083.28;4976676;28;20200;-79
2021/12/19 03:33:13;;;;;;;6.40;5.80;;;;;;;6.07;98.46;102086.84;4968325;28;20224;-79
2021/12/19 03:35:41;;;;;;;6.83;6.00;;;;;;;6.12;97.96;102093.00;4975226;28;20229;-79
2021/12/19 03:38:10;;;;;;;10.53;5.57;;;;;;;6.07;97.65;102089.44;4968562;28;20202;-79
2021/12/19 03:40:39;;;;;;;6.13;5.53;;;;;;;6.08;98.14;102104.13;4970965;28;20207;-79
2021/12/19 03:43:08;;;;;;;6.10;5.50;;;;;;;6.12;97.37;102108.56;4987454;28;20695;-79
2021/12/19 03:45:37;;;;;;;6.13;5.63;;;;;;;6.13;97.33;102123.31;4985407;28;20576;-79
2021/12/19 03:48:05;;;;;;;6.40;5.87;;;;;;;6.13;98.11;102114.66;4985658;28;20230;-79
2021/12/19 03:50:33;;;;;;;5.97;5.37;;;;;;;6.19;97.66;102108.75;4983641;28;20197;-79
2021/12/19 03:53:00;;;;;;;5.20;4.60;;;;;;;6.14;97.96;102108.63;4981505;28;20231;-80
2021/12/19 03:55:27;;;;;;;7.00;5.50;;;;;;;6.15;96.80;102118.16;4983224;28;20204;-77
2021/12/19 03:57:55;;;;;;;5.97;5.47;;;;;;;6.14;96.73;102117.28;4983710;28;20255;-80
2021/12/19 04:00:24;;;;;;;5.93;5.43;;;;;;;6.14;97.48;102118.97;4985228;28;20231;-79
2021/12/19 04:02:53;;;;;;;7.17;5.73;;;;;;;6.14;97.30;102116.41;4986786;28;20201;-79
2021/12/19 04:05:20;;;;;;;5.23;4.80;;;;;;;6.19;97.62;102103.56;4987643;28;20214;-78
2021/12/19 04:07:47;;;;;;;6.07;4.77;;;;;;;6.15;97.03;102113.84;4986953;28;20637;-80
2021/12/19 04:10:13;;;;;;;6.20;5.27;;;;;;;6.17;97.00;102108.72;4988733;28;20686;-79
2021/12/19 04:12:40;;;;;;;5.20;4.70;;;;;;;6.13;96.79;102106.88;4989493;28;20277;-79
2021/12/19 04:15:07;;;;;;;5.63;4.97;;;;;;;6.12;97.50;102099.91;4987123;28;20621;-79
2021/12/19 04:17:34;;;;;;;6.87;5.30;;;;;;;6.11;97.52;102099.06;4990370;28;20254;-77
2021/12/19 04:20:01;;;;;;;5.47;4.97;;;;;;;6.02;97.46;102085.84;4989487;28;20280;-79
2021/12/19 04:22:28;;;;;;;5.00;4.57;;;;;;;6.04;97.69;102089.34;4990554;28;20217;-79
2021/12/19 04:24:54;;;;;;;4.97;4.50;;;;;;;6.06;98.22;102103.22;4987117;28;20823;-79
2021/12/19 04:27:21;;;;;;;8.00;4.27;;;;;;;6.12;96.76;102086.97;4985146;28;20233;-78
2021/12/19 04:29:49;;;;;;;4.93;4.27;;;;;;;6.08;96.87;102101.56;4986096;28;20589;-79
2021/12/19 04:32:17;;;;;;;4.80;4.40;;;;;;;6.05;97.80;102092.84;4981301;28;20264;-78
2021/12/19 04:34:44;;;;;;;6.10;4.17;;;;;;;6.08;97.40;102087.72;4986059;28;20287;-78
2021/12/19 04:37:30;;;;;;;4.40;4.00;;;;;;;6.11;96.92;102085.22;4984852;28;20226;-79
2021/12/19 04:40:04;;;;;;;5.17;4.67;;;;;;;6.11;97.06;102087.81;4985687;28;20199;-79
2021/12/19 04:51:24;;;;;;;4.13;3.77;;;;;;;6.00;97.42;102055.53;4985788;28;20212;-79
2021/12/19 04:54:04;;;;;;;4.70;4.30;;;;;;;6.04;97.87;102037.50;4988740;28;20285;-78
2021/12/19 04:56:42;;;;;;;3.50;3.20;;;;;;;6.07;97.36;102044.50;4988407;28;20259;-78
2021/12/19 04:59:25;;;;;;;4.00;3.57;;;;;;;6.07;97.46;102049.69;4986402;28;20200;-78
2021/12/19 05:02:10;;;;;;;4.40;3.50;;;;;;;6.07;97.53;102060.06;4982264;28;20240;-78
2021/12/19 05:05:06;;;;;;;3.37;3.13;;;;;;;6.00;97.56;102056.41;4983924;28;20208;-79
2021/12/19 05:15:47;;;;;;;5.30;3.50;;;;;;;6.08;96.58;102077.34;4983567;28;20718;-79
2021/12/19 05:18:13;;;;;;;3.53;3.27;;;;;;;6.05;96.48;102080.75;4987825;28;20208;-78
2021/12/19 05:20:50;;;;;;;4.10;3.40;;;;;;;6.07;97.01;102070.44;4985431;28;20223;-78
2021/12/19 05:23:23;;;;;;;3.77;3.47;;;;;;;6.04;96.62;102065.16;4984377;28;20558;-79
2021/12/19 05:25:51;;;;;;;4.30;3.90;;;;;;;6.11;97.38;102030.78;4969813;28;20780;-80
2021/12/19 05:28:17;;;;;;;4.07;3.67;;;;;;;6.01;97.12;102024.47;4978275;28;20216;-79
2021/12/19 05:30:44;;;;;;;6.57;4.00;;;;;;;6.02;97.64;102021.03;4977875;28;20201;-79
2021/12/19 05:33:11;;;;;;;4.73;4.33;;;;;;;6.00;97.73;102019.25;4966507;28;20201;-79
2021/12/19 05:35:58;;;;;;;4.70;4.17;;;;;;;6.06;97.26;102006.44;4966528;28;20225;-79
2021/12/19 05:45:12;;;;;;;5.13;4.63;;;;;;;6.17;97.11;102025.75;4965768;28;20214;-80
2021/12/19 05:47:02;;;;;;;5.93;4.67;;;;;;;6.16;97.30;102035.25;4993685;23;20738;-78
2021/12/19 05:49:29;;;;;;;5.50;4.83;;;;;;;6.16;97.35;102043.03;4997155;28;20267;-80
2021/12/19 05:51:55;;;;;;;8.20;5.80;;;;;;;6.15;96.33;102036.06;4989297;28;20206;-79
2021/12/19 05:54:22;;;;;;;6.43;5.67;;;;;;;6.11;97.05;102033.38;4990652;28;20635;-79
2021/12/19 05:56:51;;;;;;;7.03;6.33;;;;;;;6.16;97.16;102034.34;4999286;28;20279;-80
2021/12/19 05:59:18;;;;;;;6.57;5.97;;;;;;;6.15;96.28;102040.38;4975771;28;20227;-80
2021/12/19 06:01:46;;;;;;;6.37;5.73;;;;;;;6.16;96.73;102016.19;4967265;28;20194;-79
2021/12/19 06:04:12;;;;;;;7.63;5.97;;;;;;;6.14;97.06;102047.28;4974390;28;20204;-80
2021/12/19 06:06:39;;;;;;;6.80;6.20;;;;;;;6.23;96.86;102044.03;4959724;28;20231;-78
2021/12/19 06:09:06;;;;;;;7.33;6.63;;;;;;;6.18;96.66;102049.94;4959499;28;20734;-80
2021/12/19 06:11:32;;;;;;;7.97;6.63;;;;;;;6.18;96.21;102053.41;4967674;28;20211;-80
2021/12/19 06:14:00;;;;;;;7.00;6.20;;;;;;;6.19;96.63;102030.97;4974837;28;20205;-77
2021/12/19 06:16:26;;;;;;;7.67;6.83;;;;;;;6.14;97.30;102018.78;4969277;28;20202;-77
2021/12/19 06:18:52;;;;;;;8.67;7.97;;;;;;;6.12;96.50;102011.78;4968922;28;20200;-80
2021/12/19 06:21:19;;;;;;;7.77;7.07;;;;;;;6.18;96.97;102034.38;4962971;28;20255;-79
2021/12/19 06:23:45;;;;;;;7.87;7.20;;;;;;;6.16;97.03;102022.28;4978342;28;20574;-80
2021/12/19 06:26:12;;;;;;;8.87;7.33;;;;;;;6.16;97.01;102018.78;4969509;28;20201;-79
2021/12/19 06:28:39;;;;;;;8.80;7.63;;;;;;;6.16;97.34;101998.03;4968337;28;20228;-80
2021/12/19 06:31:07;;;;;;;9.63;7.80;;;;;;;6.14;96.43;102013.59;4961093;28;20205;-80
2021/12/19 06:33:34;;;;;;;7.80;7.00;;;;;;;6.14;96.59;102013.59;4970710;28;20197;-81
2021/12/19 06:36:00;;;;;;;9.73;8.73;;;;;;;6.11;96.82;102025.59;4968019;28;20637;-80
2021/12/19 06:38:27;;;;;;;8.93;7.87;;;;;;;6.11;96.64;102017.81;4967711;28;20275;-80
2021/12/19 06:40:54;;;;;;;8.57;7.63;;;;;;;6.15;96.62;102011.88;4967655;28;20251;-81
2021/12/19 06:43:20;;;;;;;9.20;8.17;;;;;;;6.17;96.00;102020.56;4976705;28;20214;-80
2021/12/19 06:45:47;;;;;;;8.27;7.40;;;;;;;6.10;96.31;102029.00;4978365;28;20205;-81
2021/12/19 06:48:15;;;;;;;8.17;7.40;;;;;;;6.14;96.50;102023.06;4971684;28;20271;-80
2021/12/19 06:50:41;;;;;;;9.13;7.33;;;;;;;6.14;96.46;102021.38;4971872;28;20201;-81
2021/12/19 06:53:08;;;;;;;8.27;7.47;;;;;;;6.13;96.05;102027.38;4971209;28;20686;-81
2021/12/19 06:55:34;;;;;;;8.20;7.23;;;;;;;6.16;96.17;102022.28;4978375;28;20762;-79
2021/12/19 06:58:00;;;;;;;10.77;6.87;;;;;;;6.11;97.11;101999.66;4980775;28;20241;-80
2021/12/19 07:00:27;;;;;;;7.43;6.40;;;;;;;6.08;96.20;101994.41;4969310;28;20743;-80
2021/12/19 07:02:55;;;;;;;8.13;7.23;;;;;;;6.12;96.52;102007.47;4967767;28;20597;-80
2021/12/19 07:05:23;;;;;;;8.83;6.60;;;;;;;6.06;97.01;101998.66;4966590;28;20212;-80
2021/12/19 07:07:49;;;;;;;9.63;7.10;;;;;;;6.14;96.17;101990.25;4966776;28;20302;-79
2021/12/19 07:10:16;;;;;;;6.93;6.33;;;;;;;6.11;96.46;101978.94;4972205;28;20198;-81
2021/12/19 07:12:42;;;;;;;9.00;7.90;;;;;;;6.19;96.23;101994.69;4967078;28;20212;-80
2021/12/19 07:15:10;;;;;;;8.13;7.03;;;;;;;6.11;96.41;101987.56;4967594;28;20750;-78
2021/12/19 07:17:37;;;;;;;10.13;6.90;;;;;;;6.13;96.71;101964.28;4965934;28;20252;-80
2021/12/19 07:20:04;;;;;;;7.50;6.80;;;;;;;6.09;96.65;101970.25;4959836;28;20205;-80
2021/12/19 07:22:32;;;;;;;16.23;6.80;;;;;;;6.12;97.20;101963.38;4972941;28;20703;-79
2021/12/19 07:24:58;;;;;;;11.97;8.67;;;;;;;6.09;96.99;101946.91;4970725;28;20820;-79
2021/12/19 07:27:24;;;;;;;8.57;7.50;;;;;;;6.07;97.99;101925.25;4971214;28;20228;-79
2021/12/19 07:29:53;;;;;;;10.70;7.07;;;;;;;6.01;97.97;101927.72;4967681;28;20255;-79
2021/12/19 07:32:19;;;;;;;9.60;6.53;;;;;;;6.05;97.15;101919.16;4969520;28;20204;-79
2021/12/19 07:34:47;;;;;;;7.67;6.03;;;;;;;6.02;98.00;101922.53;4968319;28;20252;-79
2021/12/19 07:37:13;;;;;;;6.30;5.70;;;;;;;6.03;97.18;101913.06;4970516;28;20216;-79
2021/12/19 07:39:52;;;;;;;7.70;6.90;;;;;;;6.05;97.46;101917.44;4969306;28;20206;-81
2021/12/19 07:42:19;;;;;;;5.33;4.83;;;;;;;6.06;97.01;101936.44;4957565;28;20205;-79
2021/12/19 07:44:45;;;;;;;7.43;5.20;;;;;;;6.11;96.54;101940.03;4970187;28;20202;-80
2021/12/19 07:47:12;;;;;;;4.97;4.00;;;;;;;6.08;96.62;101930.47;4956960;28;20754;-79
2021/12/19 07:49:39;;;;;;;6.23;4.70;;;;;;;6.09;96.70;101942.59;4964528;28;20228;-81
2021/12/19 07:52:06;;;;;;;7.53;5.23;;;;;;;6.10;96.25;101956.44;4965064;28;20642;-81
2021/12/19 07:54:32;;;;;;;6.37;4.67;;;;;;;6.05;96.36;101945.09;4964336;28;20266;-80
2021/12/19 07:57:00;;;;;;;5.10;4.37;;;;;;;6.02;97.18;101925.13;4963023;28;20283;-79
2021/12/19 07:59:26;;;;;;;5.43;4.00;;;;;;;6.07;97.17;101920.06;4968573;28;20749;-81
2021/12/19 08:01:52;;;;;;;4.10;3.67;;;;;;;5.95;97.87;101907.69;4966583;28;20208;-78
2021/12/19 08:04:19;;;;;;;3.93;3.50;;;;;;;5.89;97.60;101890.25;4969364;28;20208;-80
2021/12/19 08:06:45;;;;;;;4.67;3.83;;;;;;;5.91;98.33;101891.16;4960544;28;20909;-79
2021/12/19 08:09:21;;;;;;;6.80;3.60;;;;;;;5.94;98.38;101878.25;4957221;28;20230;-79
2021/12/19 08:11:48;;;;;;;3.73;3.17;;;;;;;5.97;98.19;101890.47;4963172;28;20285;-80
2021/12/19 08:14:16;;;;;;;4.25;3.50;;;;;;;5.91;98.18;101887.69;4966589;28;20481;-79
2021/12/19 08:16:45;;;;;;;3.20;3.00;;;;;;;5.94;98.09;101879.97;4958830;28;20205;-82
2021/12/19 08:19:12;;;;;;;4.63;2.93;;;;;;;5.94;97.04;101903.31;4958189;28;20253;-79
2021/12/19 08:21:38;;;;;;;4.63;2.80;;;;;;;5.99;96.92;101911.25;4967550;28;20684;-80
2021/12/19 08:24:10;;;;;;;4.47;2.60;;;;;;;5.99;97.15;101909.53;4961902;28;20201;-78
2021/12/19 08:26:37;;;;;;;3.20;2.90;;;;;;;6.05;96.11;101927.81;4968509;28;20645;-81
2021/12/19 08:29:03;;;;;;;2.80;2.60;;;;;;;5.94;96.43;101935.28;4965346;28;20229;-80
2021/12/19 08:31:31;;;;;;;5.90;3.63;;;;;;;5.94;96.55;101927.50;4966280;28;20201;-80
2021/12/19 08:33:58;;;;;;;5.23;3.40;;;;;;;5.98;96.81;101931.09;4958818;28;20206;-80
2021/12/19 08:36:24;;;;;;;6.00;2.80;;;;;;;5.99;96.38;101926.81;4963107;28;20221;-82
2021/12/19 08:38:51;;;;;;;4.10;3.70;;;;;;;6.01;95.57;101935.50;4962409;28;20253;-81
2021/12/19 08:41:18;;;;;;;3.80;3.07;;;;;;;6.04;95.82;101943.31;4963692;28;20272;-80
2021/12/19 08:43:44;;;;;;;4.60;3.47;;;;;;;6.06;95.75;101944.22;4966732;28;20209;-81
2021/12/19 08:46:11;;;;;;;3.60;3.30;;;;;;;6.08;95.63;101960.69;4972781;28;20205;-81
2021/12/19 08:48:40;;;;;;;6.00;4.37;;;;;;;6.03;95.86;101942.44;4961107;28;20763;-78
2021/12/19 08:51:07;;;;;;;6.20;3.90;;;;;;;6.02;96.07;101939.81;4962429;28;20201;-80
2021/12/19 08:53:33;;;;;;;3.70;3.17;;;;;;;6.00;95.86;101924.22;4971742;28;20284;-79
2021/12/19 08:56:00;;;;;;;4.47;3.17;;;;;;;6.00;96.32;101934.59;4968431;28;20233;-80
2021/12/19 08:58:28;;;;;;;7.10;3.73;;;;;;;6.05;96.24;101938.19;4979960;28;20222;-80
2021/12/19 09:00:58;;;;;;;7.47;3.80;;;;;;;6.06;95.71;101939.03;4984637;28;20200;-80
2021/12/19 09:03:24;;;;;;;6.53;5.10;;;;;;;6.07;95.85;101923.53;4988664;28;20460;-78
2021/12/19 09:05:52;;;;;;;6.47;4.30;;;;;;;6.12;96.26;101934.88;4978234;28;20238;-80
2021/12/19 09:08:18;;;;;;;7.50;4.47;;;;;;;6.15;95.67;101940.13;4970841;28;20224;-81
2021/12/19 09:10:45;;;;;;;5.83;4.10;;;;;;;6.17;95.69;101950.56;4968499;28;20203;-79
2021/12/19 09:13:11;;;;;;;4.37;3.63;;;;;;;6.11;95.78;101951.28;4972312;28;20204;-79
2021/12/19 09:15:37;;;;;;;3.90;3.47;;;;;;;6.08;96.21;101958.97;4975171;28;20233;-81
2021/12/19 09:18:04;;;;;;;4.70;4.20;;;;;;;6.10;95.96;101943.47;4972113;28;20244;-81
2021/12/19 09:20:30;;;;;;;4.37;3.73;;;;;;;6.14;95.77;101929.72;4970725;28;20259;-79
2021/12/19 09:22:58;;;;;;;5.40;4.07;;;;;;;6.12;95.84;101941.78;4974816;28;20227;-80
2021/12/19 09:25:25;;;;;;;6.93;4.33;;;;;;;6.16;95.88;101933.22;4973987;28;20256;-80
2021/12/19 09:27:51;;;;;;;5.40;3.37;;;;;;;6.11;95.96;101938.31;4967534;28;20224;-81
2021/12/19 09:30:18;;;;;;;5.27;3.70;;;;;;;6.16;95.55;101943.59;4969674;28;20201;-83
2021/12/19 09:32:44;;;;;;;4.70;3.83;;;;;;;6.08;96.32;101945.13;4971903;28;20202;-81
2021/12/19 09:35:11;;;;;;;5.13;4.40;;;;;;;6.06;97.30;101902.75;4970022;28;20206;-81
2021/12/19 09:37:37;;;;;;;6.50;4.77;;;;;;;5.98;97.79;101863.69;4968912;28;20225;-80
2021/12/19 09:40:09;;;;;;;6.43;4.53;;;;;;;6.00;98.22;101838.69;4965121;28;20210;-81
2021/12/19 09:42:37;;;;;;;8.45;6.18;;;;;;;6.07;98.39;101838.00;4965612;28;20453;-82
2021/12/19 09:45:05;;;;;;;6.20;4.00;;;;;;;6.10;97.12;101868.28;4972038;28;20585;-81
2021/12/19 09:47:31;;;;;;;7.13;3.77;;;;;;;6.14;97.15;101883.97;4968770;28;20229;-79
2021/12/19 09:49:58;;;;;;;7.70;3.80;;;;;;;6.19;97.12;101894.44;4973024;28;20197;-77
2021/12/19 09:52:25;;;;;;;4.40;4.00;;;;;;;6.10;96.88;101894.22;4972237;28;20204;-81
2021/12/19 09:54:53;;;;;;;4.73;4.27;;;;;;;6.08;97.57;101885.53;4972912;28;20563;-81
2021/12/19 09:57:20;;;;;;;6.00;4.47;;;;;;;6.06;97.62;101876.84;4974462;28;20311;-80
2021/12/19 09:59:47;;;;;;;6.23;4.47;;;;;;;6.09;97.42;101858.78;4971506;28;20197;-80
2021/12/19 10:02:13;;;;;;;4.17;3.60;;;;;;;6.09;97.77;101874.31;4975582;28;20205;-79
2021/12/19 10:04:41;;;;;;;4.40;4.00;;;;;;;6.09;97.69;101861.38;4975621;28;20204;-79
2021/12/19 10:07:13;;;;;;;8.73;3.53;;;;;;;6.08;97.08;101850.09;4970280;28;20237;-79
2021/12/19 10:09:54;;;;;;;5.47;3.67;;;;;;;6.09;97.82;101825.94;4967619;28;20220;-79
2021/12/19 10:15:10;;;;;;;11.20;7.80;;;;;;;6.12;98.21;101826.00;4965013;28;20202;-79
2021/12/19 10:17:37;;;;;;;5.40;4.27;;;;;;;6.12;97.95;101817.34;4970621;28;20251;-81
2021/12/19 10:20:06;;;;;;;6.10;3.90;;;;;;;6.04;98.32;101796.44;4969148;28;20626;-80
2021/12/19 10:22:35;;;;;;;6.40;4.60;;;;;;;6.03;99.08;101784.34;4969159;28;20235;-81
2021/12/19 10:25:18;;;;;;;4.97;3.17;;;;;;;6.05;99.00;101781.78;4969600;28;20204;-80
2021/12/19 10:27:48;;;;;;;5.27;3.53;;;;;;;6.11;99.24;101779.31;4968618;28;20221;-80
2021/12/19 10:30:20;;;;;;;3.37;2.67;;;;;;;6.11;99.04;101775.00;4964007;28;20890;-79
2021/12/19 10:32:58;;;;;;;4.53;3.17;;;;;;;6.07;99.24;101757.63;4973486;28;20266;-77
2021/12/19 10:35:28;;;;;;;4.23;2.73;;;;;;;6.01;99.80;101751.47;4964038;28;20205;-78
2021/12/19 10:37:54;;;;;;;4.23;2.63;;;;;;;5.94;100.00;101733.13;4967918;28;20255;-78
2021/12/19 10:40:22;;;;;;;4.32;3.78;;;;;;;6.03;100.00;101723.84;4968019;28;20447;-79
2021/12/19 10:42:55;;;;;;;4.33;2.90;;;;;;;6.12;99.99;101718.84;4965072;28;20212;-79
2021/12/19 10:45:32;;;;;;;3.87;3.03;;;;;;;6.01;100.00;101718.63;4958758;28;20209;-80
2021/12/19 10:48:21;;;;;;;5.90;3.67;;;;;;;5.94;100.00;101703.75;4967236;28;20642;-78
2021/12/19 10:50:51;;;;;;;3.00;2.67;;;;;;;5.99;100.00;101699.59;4975947;28;20196;-81
2021/12/19 10:53:18;;;;;;;4.00;2.60;;;;;;;5.91;100.00;101683.84;4969988;28;20234;-79
2021/12/19 10:55:47;;;;;;;3.37;2.70;;;;;;;6.03;100.00;101682.38;4963645;28;20699;-80
2021/12/19 10:58:24;;;;;;;3.97;2.50;;;;;;;6.05;100.00;101683.28;4967997;28;20221;-80
2021/12/19 11:01:04;;;;;;;3.63;2.10;;;;;;;5.95;100.00;101664.97;4967081;28;20208;-77
2021/12/19 11:03:55;;;;;;;2.93;2.37;;;;;;;5.95;100.00;101643.34;4963817;28;21142;-77
2021/12/19 11:06:29;;;;;;;6.10;2.73;;;;;;;5.85;100.00;101611.19;4972166;28;20208;-78
2021/12/19 11:08:58;;;;;;;2.80;2.50;;;;;;;5.81;100.00;101592.94;4964700;28;20224;-78
2021/12/19 11:11:39;;;;;;;5.30;2.67;;;;;;;5.74;100.00;101558.25;4967892;28;20311;-78
2021/12/19 11:14:07;;;;;;;2.97;2.50;;;;;;;5.71;100.00;101537.50;4964460;28;20212;-77
2021/12/19 11:16:34;;;;;;;5.40;2.37;;;;;;;5.80;100.00;101516.06;4964150;28;20266;-78
2021/12/19 11:19:01;;;;;;;2.43;2.23;;;;;;;5.78;100.00;101514.31;4963689;28;20675;-77
2021/12/19 11:21:32;;;;;;;3.30;2.30;;;;;;;5.72;100.00;101505.56;4964676;28;20212;-76
2021/12/19 11:23:59;;;;;;;3.43;2.40;;;;;;;5.73;100.00;101491.78;4963888;28;20205;-76
2021/12/19 11:26:26;;;;;;;3.63;2.00;;;;;;;5.70;100.00;101482.22;4964362;28;20209;-75
2021/12/19 11:28:55;;;;;;;3.20;2.10;;;;;;;5.72;100.00;101474.47;4963626;28;21319;-79
2021/12/19 11:31:27;;;;;;;3.13;2.13;;;;;;;5.77;100.00;101471.13;4964283;28;20683;-79
2021/12/19 11:34:10;;;;;;;4.57;2.50;;;;;;;5.79;100.00;101473.75;4964243;28;20204;-77
2021/12/19 11:36:39;;;;;;;2.57;1.97;;;;;;;5.75;100.00;101484.91;4963928;28;20239;-76
2021/12/19 11:39:08;;;;;;;2.50;1.80;;;;;;;5.84;100.00;101494.53;4964200;28;20211;-76
2021/12/19 11:41:35;;;;;;;3.93;1.90;;;;;;;5.89;100.00;101498.09;4964280;28;20241;-75
2021/12/19 11:44:06;;;;;;;5.53;2.83;;;;;;;5.93;100.00;101502.47;4963783;28;20271;-77
2021/12/19 11:46:44;;;;;;;3.47;2.30;;;;;;;5.95;100.00;101503.41;4963974;28;20220;-77
2021/12/19 11:49:15;;;;;;;2.40;2.20;;;;;;;5.86;100.00;101487.66;4963775;28;20212;-77
2021/12/19 11:51:41;;;;;;;4.70;2.47;;;;;;;5.88;100.00;101475.59;4963841;28;20245;-76
2021/12/19 11:54:14;;;;;;;3.97;2.87;;;;;;;5.85;100.00;101455.72;4964246;28;20275;-78
2021/12/19 11:56:40;;;;;;;3.70;2.73;;;;;;;5.84;100.00;101443.59;4963395;28;20233;-77
2021/12/19 11:59:20;;;;;;;5.57;3.20;;;;;;;5.81;100.00;101440.06;4964001;28;20205;-77
2021/12/19 12:01:49;;;;;;;5.20;3.50;;;;;;;5.82;100.00;101431.47;4963905;28;20216;-78
2021/12/19 12:04:17;;;;;;;5.60;2.83;;;;;;;5.80;100.00;101423.66;4963832;28;20297;-79
2021/12/19 12:06:44;;;;;;;6.03;2.30;;;;;;;5.81;100.00;101424.53;4963799;28;20700;-76
2021/12/19 12:09:14;;;;;;;2.97;2.47;;;;;;;5.74;100.00;101406.28;4963808;28;20278;-77
2021/12/19 12:12:02;;;;;;;3.90;2.43;;;;;;;5.74;100.00;101400.25;4963509;28;20208;-78
2021/12/19 12:14:34;;;;;;;4.07;2.60;;;;;;;5.74;100.00;101392.47;4963457;28;20209;-78
2021/12/19 12:17:07;;;;;;;5.73;1.93;;;;;;;5.74;100.00;101402.84;4964023;28;20232;-77
2021/12/19 12:19:39;;;;;;;2.80;2.43;;;;;;;5.81;100.00;101390.84;4966113;28;20203;-78
2021/12/19 12:22:32;;;;;;;4.33;2.43;;;;;;;5.85;100.00;101411.66;4967172;28;20298;-75